createdAt,value
2023-03-23T00:00:15.021Z,43.42
2023-03-23T00:02:49.819Z,42.95
2023-03-23T00:05:37.091Z,42.13
2023-03-23T00:08:17.153Z,43.33
2023-03-23T00:11:14.844Z,44.17
2023-03-23T00:13:57.282Z,40.60
2023-03-23T00:16:43.013Z,42.80
2023-03-23T00:19:27.757Z,42.25
2023-03-23T00:22:06.358Z,42.58
2023-03-23T00:24:44.722Z,42.10
2023-03-23T00:27:28.798Z,40.55
2023-03-23T00:30:20.351Z,43.45
2023-03-23T00:33:01.922Z,42.50
2023-03-23T00:35:50.825Z,40.83
2023-03-23T00:38:29.530Z,38.97
2023-03-23T00:41:09.746Z,41.08
2023-03-23T00:43:59.300Z,39.90
2023-03-23T00:46:49.342Z,41.33
2023-03-23T00:49:33.557Z,41.30
2023-03-23T00:52:24.768Z,40.58
2023-03-23T00:55:08.610Z,40.58
2023-03-23T00:57:49.379Z,39.25
2023-03-23T01:00:31.836Z,40.08
2023-03-23T01:03:33.173Z,37.97
2023-03-23T01:06:16.189Z,38.78
2023-03-23T01:08:56.484Z,39.30
2023-03-23T01:11:42.961Z,37.85
2023-03-23T01:14:27.391Z,38.85
2023-03-23T01:17:02.708Z,37.25
2023-03-23T01:19:43.156Z,38.33
2023-03-23T01:22:17.983Z,37.83
2023-03-23T01:24:59.321Z,39.28
2023-03-23T01:28:01.217Z,39.45
2023-03-23T01:30:43.362Z,38.65
2023-03-23T01:33:19.742Z,37.67
2023-03-23T01:36:16.474Z,40.95
2023-03-23T01:39:10.752Z,37.83
2023-03-23T01:41:44.846Z,40.13
2023-03-23T01:44:53.924Z,38.65
2023-03-23T01:47:34.976Z,39.83
2023-03-23T01:50:22.784Z,37.85
2023-03-23T01:53:25.162Z,37.95
2023-03-23T01:56:16.519Z,37.85
2023-03-23T01:58:58.702Z,38.45
2023-03-23T02:01:37.911Z,39.80
2023-03-23T02:04:25.989Z,38.80
2023-03-23T02:07:12.098Z,38.83
2023-03-23T02:09:53.959Z,38.42
2023-03-23T02:12:40.290Z,39.38
2023-03-23T02:15:20.451Z,39.38
2023-03-23T02:18:06.669Z,39.55
2023-03-23T02:21:21.482Z,39.42
2023-03-23T02:24:49.790Z,39.83
2023-03-23T02:28:05.469Z,41.13
2023-03-23T02:31:19.416Z,39.55
2023-03-23T02:34:14.138Z,41.03
2023-03-23T02:37:05.266Z,41.45
2023-03-23T02:39:46.041Z,43.78
2023-03-23T02:42:28.448Z,41.28
2023-03-23T02:45:18.075Z,41.80
2023-03-23T02:47:58.932Z,42.00
2023-03-23T02:50:39.136Z,42.50
2023-03-23T02:53:23.498Z,40.55
2023-03-23T02:56:12.996Z,42.72
2023-03-23T02:58:50.941Z,42.88
2023-03-23T03:02:08.670Z,41.42
2023-03-23T03:04:53.916Z,42.38
2023-03-23T03:07:57.258Z,44.60
2023-03-23T03:10:52.621Z,41.72
2023-03-23T03:13:49.130Z,41.05
2023-03-23T03:16:35.653Z,42.78
2023-03-23T03:19:24.546Z,42.88
2023-03-23T03:22:04.180Z,42.35
2023-03-23T03:24:56.189Z,45.22
2023-03-23T03:27:35.958Z,45.33
2023-03-23T03:30:29.002Z,43.90
2023-03-23T03:33:08.917Z,44.38
2023-03-23T03:36:04.287Z,43.30
2023-03-23T03:38:53.031Z,43.45
2023-03-23T03:41:28.773Z,42.80
2023-03-23T03:44:04.550Z,42.85
2023-03-23T03:46:47.886Z,40.83
2023-03-23T03:49:32.080Z,42.45
2023-03-23T03:52:07.999Z,42.15
2023-03-23T03:57:38.711Z,41.30
2023-03-23T04:00:27.337Z,43.22
2023-03-23T04:03:05.520Z,42.30
2023-03-23T04:06:05.040Z,44.55
2023-03-23T04:09:07.717Z,42.00
2023-03-23T04:12:01.735Z,41.38
2023-03-23T04:15:18.752Z,44.78
2023-03-23T04:17:59.534Z,46.80
2023-03-23T04:20:40.163Z,45.03
2023-03-23T04:23:23.497Z,46.60
2023-03-23T04:26:10.841Z,47.13
2023-03-23T04:28:58.433Z,48.97
2023-03-23T04:31:49.059Z,46.90
2023-03-23T04:34:41.152Z,48.35
2023-03-23T04:37:20.932Z,45.75
2023-03-23T04:40:08.868Z,48.47
2023-03-23T04:42:48.523Z,48.47
2023-03-23T04:46:02.644Z,46.35
2023-03-23T04:51:26.311Z,46.30
2023-03-23T04:54:19.036Z,47.30
2023-03-23T04:57:02.497Z,47.25
2023-03-23T04:59:50.392Z,45.95
2023-03-23T05:02:39.496Z,48.00
2023-03-23T05:05:24.215Z,45.47
2023-03-23T05:08:14.754Z,44.80
2023-03-23T05:10:59.966Z,45.88
2023-03-23T05:13:42.142Z,46.83
2023-03-23T05:16:21.910Z,45.60
2023-03-23T05:19:04.022Z,45.10
2023-03-23T05:21:43.755Z,44.65
2023-03-23T05:24:26.173Z,45.03
2023-03-23T05:27:03.736Z,48.85
2023-03-23T05:29:47.010Z,48.03
2023-03-23T05:32:24.807Z,48.50
2023-03-23T05:35:05.168Z,49.22
2023-03-23T05:37:51.150Z,47.63
2023-03-23T05:40:33.015Z,47.38
2023-03-23T05:43:22.428Z,48.25
2023-03-23T05:46:29.462Z,48.25
2023-03-23T05:49:22.698Z,47.72
2023-03-23T05:52:02.152Z,45.60
2023-03-23T05:54:47.333Z,46.15
2023-03-23T05:57:36.901Z,46.25
2023-03-23T06:00:31.329Z,45.58
2023-03-23T06:03:26.782Z,47.80
2023-03-23T06:06:25.955Z,44.15
2023-03-23T06:09:35.084Z,46.55
2023-03-23T06:12:37.573Z,47.03
2023-03-23T06:15:47.985Z,45.45
2023-03-23T06:18:42.065Z,43.75
2023-03-23T06:21:33.389Z,44.50
2023-03-23T06:24:32.599Z,43.38
2023-03-23T06:27:13.159Z,43.25
2023-03-23T06:32:42.176Z,40.78
2023-03-23T06:35:31.746Z,42.13
2023-03-23T06:38:25.403Z,40.33
2023-03-23T06:41:20.756Z,42.28
2023-03-23T06:43:57.304Z,41.58
2023-03-23T06:46:42.288Z,41.22
2023-03-23T06:49:44.896Z,40.88
2023-03-23T06:52:42.337Z,39.33
2023-03-23T06:55:37.494Z,39.55
2023-03-23T06:58:19.740Z,39.85
2023-03-23T07:01:08.941Z,38.65
2023-03-23T07:06:41.237Z,39.33
2023-03-23T07:09:46.507Z,36.28
2023-03-23T07:12:32.440Z,37.03
2023-03-23T07:15:20.583Z,35.63
2023-03-23T07:18:05.754Z,37.40
2023-03-23T07:21:03.340Z,37.10
2023-03-23T07:23:57.772Z,35.83
2023-03-23T07:27:00.542Z,35.10
2023-03-23T07:29:48.380Z,37.10
2023-03-23T07:32:40.102Z,38.15
2023-03-23T07:35:25.011Z,39.10
2023-03-23T07:38:21.386Z,36.53
2023-03-23T07:41:00.336Z,36.65
2023-03-23T07:43:50.876Z,37.92
2023-03-23T07:46:50.038Z,36.63
2023-03-23T07:49:28.670Z,36.85
2023-03-23T07:52:27.895Z,37.50
2023-03-23T07:55:27.413Z,34.42
2023-03-23T07:58:10.704Z,34.38
2023-03-23T08:00:57.693Z,32.67
2023-03-23T08:03:47.343Z,33.58
2023-03-23T08:06:45.609Z,31.63
2023-03-23T08:09:49.369Z,31.27
2023-03-23T08:13:18.084Z,28.05
2023-03-23T08:15:53.604Z,29.25
2023-03-23T08:19:08.530Z,28.77
2023-03-23T08:22:10.533Z,26.92
2023-03-23T08:25:10.964Z,25.63
2023-03-23T08:28:08.252Z,25.23
2023-03-23T08:31:08.812Z,24.23
2023-03-23T08:34:08.828Z,25.15
2023-03-23T08:36:50.333Z,26.77
2023-03-23T08:39:46.653Z,26.15
2023-03-23T08:43:01.220Z,25.33
2023-03-23T08:45:58.051Z,26.00
2023-03-23T08:48:50.710Z,25.17
2023-03-23T08:54:50.922Z,31.10
2023-03-23T08:57:37.308Z,22.50
2023-03-23T09:00:34.077Z,21.45
2023-03-23T09:03:29.995Z,20.02
2023-03-23T09:06:20.012Z,20.63
2023-03-23T09:09:00.372Z,20.48
2023-03-23T09:11:43.372Z,20.98
2023-03-23T09:14:19.910Z,19.95
2023-03-23T09:17:03.525Z,18.77
2023-03-23T09:19:50.399Z,19.92
2023-03-23T09:22:35.101Z,18.30
2023-03-23T09:25:16.932Z,17.55
2023-03-23T09:28:01.269Z,16.13
2023-03-23T09:30:53.202Z,16.40
2023-03-23T09:33:39.984Z,16.23
2023-03-23T09:36:27.213Z,15.00
2023-03-23T09:39:19.538Z,68.68
2023-03-23T09:42:20.495Z,15.18
2023-03-23T09:45:18.232Z,14.88
2023-03-23T09:48:33.296Z,12.43
2023-03-23T09:51:15.065Z,14.23
2023-03-23T09:53:57.882Z,13.35
2023-03-23T09:56:42.928Z,6.65
2023-03-23T09:59:33.466Z,8.20
2023-03-23T10:02:23.326Z,7.88
2023-03-23T10:05:21.142Z,9.30
2023-03-23T10:08:11.966Z,8.93
2023-03-23T10:11:11.096Z,10.80
2023-03-23T10:14:15.760Z,11.45
2023-03-23T10:17:02.960Z,10.43
2023-03-23T10:19:47.146Z,10.82
2023-03-23T10:22:33.802Z,11.30
2023-03-23T10:25:30.127Z,9.95
2023-03-23T10:28:14.905Z,12.20
2023-03-23T10:31:02.015Z,11.70
2023-03-23T10:33:45.600Z,9.23
2023-03-23T10:36:32.358Z,9.82
2023-03-23T10:39:21.476Z,8.95
2023-03-23T10:41:54.991Z,9.18
2023-03-23T10:47:27.795Z,41.22
2023-03-23T10:50:09.894Z,10.32
2023-03-23T10:52:54.819Z,9.45
2023-03-23T10:55:46.260Z,8.20
2023-03-23T10:58:37.268Z,9.05
2023-03-23T11:01:19.847Z,8.57
2023-03-23T11:04:05.828Z,9.45
2023-03-23T11:06:53.297Z,8.98
2023-03-23T11:09:46.484Z,8.77
2023-03-23T11:12:28.216Z,8.60
2023-03-23T11:15:28.946Z,8.35
2023-03-23T11:18:11.877Z,8.63
2023-03-23T11:20:56.425Z,8.50
2023-03-23T11:23:44.109Z,8.25
2023-03-23T11:26:29.179Z,9.48
2023-03-23T11:29:20.529Z,8.10
2023-03-23T11:32:08.488Z,8.23
2023-03-23T11:34:49.798Z,8.50
2023-03-23T11:37:36.387Z,7.88
2023-03-23T11:40:37.728Z,8.38
2023-03-23T11:43:30.936Z,7.72
2023-03-23T11:46:20.204Z,6.75
2023-03-23T11:49:30.645Z,7.80
2023-03-23T11:52:16.343Z,7.63
2023-03-23T11:55:10.178Z,7.25
2023-03-23T11:57:58.524Z,7.47
2023-03-23T12:00:51.930Z,7.82
2023-03-23T12:03:33.193Z,8.57
2023-03-23T12:06:20.827Z,7.82
2023-03-23T12:09:12.667Z,8.13
2023-03-23T12:12:20.145Z,6.82
2023-03-23T12:15:12.128Z,7.25
2023-03-23T12:18:06.358Z,7.65
2023-03-23T12:20:52.480Z,8.00
2023-03-23T12:23:56.075Z,8.48
2023-03-23T12:26:42.123Z,8.73
2023-03-23T12:29:42.903Z,7.97
2023-03-23T12:32:54.282Z,6.83
2023-03-23T12:35:49.435Z,7.07
2023-03-23T12:38:55.585Z,7.18
2023-03-23T12:41:57.246Z,7.20
2023-03-23T12:44:43.524Z,7.07
2023-03-23T12:47:41.106Z,7.07
2023-03-23T12:50:22.394Z,7.32
2023-03-23T12:53:17.361Z,7.28
2023-03-23T12:56:00.450Z,7.15
2023-03-23T12:58:45.549Z,6.80
2023-03-23T13:01:30.711Z,6.53
2023-03-23T13:04:27.186Z,6.30
2023-03-23T13:07:03.022Z,7.07
2023-03-23T13:09:58.110Z,6.82
2023-03-23T13:12:49.142Z,6.15
2023-03-23T13:15:51.636Z,7.65
2023-03-23T13:18:45.032Z,7.35
2023-03-23T13:21:39.656Z,6.82
2023-03-23T13:24:30.725Z,7.85
2023-03-23T13:27:09.748Z,8.27
2023-03-23T13:29:55.211Z,6.80
2023-03-23T13:32:49.924Z,7.05
2023-03-23T13:35:32.001Z,7.25
2023-03-23T13:38:25.574Z,7.10
2023-03-23T13:41:13.017Z,6.88
2023-03-23T13:44:21.497Z,7.90
2023-03-23T13:47:13.662Z,6.13
2023-03-23T13:50:15.315Z,6.82
2023-03-23T13:53:04.422Z,6.72
2023-03-23T13:56:03.460Z,6.35
2023-03-23T13:58:58.307Z,7.72
2023-03-23T14:01:45.705Z,6.60
2023-03-23T14:04:29.632Z,6.85
2023-03-23T14:07:18.476Z,6.13
2023-03-23T14:10:04.384Z,7.30
2023-03-23T14:12:56.756Z,6.03
2023-03-23T14:15:52.357Z,6.63
2023-03-23T14:18:37.761Z,6.35
2023-03-23T14:21:25.149Z,7.28
2023-03-23T14:23:59.619Z,6.88
2023-03-23T14:26:57.244Z,6.97
2023-03-23T14:29:48.046Z,6.47
2023-03-23T14:32:33.414Z,6.22
2023-03-23T14:35:24.102Z,8.00
2023-03-23T14:38:07.064Z,6.88
2023-03-23T14:40:51.440Z,6.90
2023-03-23T14:43:44.298Z,7.07
2023-03-23T14:46:28.793Z,6.97
2023-03-23T14:49:01.049Z,6.50
2023-03-23T14:51:37.478Z,6.82
2023-03-23T14:54:19.904Z,6.47
2023-03-23T14:57:09.405Z,6.65
2023-03-23T14:59:49.972Z,6.80
2023-03-23T15:02:36.005Z,7.22
2023-03-23T15:05:21.948Z,6.70
2023-03-23T15:08:03.295Z,7.88
2023-03-23T15:10:57.927Z,7.68
2023-03-23T15:13:38.171Z,6.43
2023-03-23T15:16:19.808Z,6.13
2023-03-23T15:19:02.421Z,6.20
2023-03-23T15:21:55.945Z,6.38
2023-03-23T15:24:51.736Z,6.40
2023-03-23T15:27:38.102Z,6.55
2023-03-23T15:30:36.348Z,7.10
2023-03-23T15:33:20.363Z,6.40
2023-03-23T15:36:11.366Z,7.00
2023-03-23T15:38:57.462Z,7.45
2023-03-23T15:41:35.364Z,5.97
2023-03-23T15:44:30.826Z,6.22
2023-03-23T15:47:20.869Z,6.07
2023-03-23T15:50:18.456Z,5.70
2023-03-23T15:53:01.607Z,6.70
2023-03-23T15:55:49.080Z,6.53
2023-03-23T15:58:26.659Z,6.30
2023-03-23T16:01:29.471Z,6.70
2023-03-23T16:04:21.778Z,7.18
2023-03-23T16:07:12.682Z,8.45
2023-03-23T16:09:48.097Z,7.32
2023-03-23T16:12:40.987Z,9.88
2023-03-23T16:15:23.565Z,7.90
2023-03-23T16:18:16.020Z,11.40
2023-03-23T16:21:05.680Z,10.55
2023-03-23T16:24:05.159Z,9.90
2023-03-23T16:26:51.352Z,10.02
2023-03-23T16:29:46.927Z,9.73
2023-03-23T16:32:33.409Z,17.10
2023-03-23T16:35:17.445Z,9.88
2023-03-23T16:38:08.436Z,8.25
2023-03-23T16:41:05.662Z,8.27
2023-03-23T16:43:50.684Z,7.57
2023-03-23T16:46:27.349Z,8.20
2023-03-23T16:49:08.793Z,10.02
2023-03-23T16:51:55.836Z,8.88
2023-03-23T16:54:35.467Z,10.35
2023-03-23T16:57:20.865Z,10.18
2023-03-23T16:59:55.714Z,14.30
2023-03-23T17:02:30.405Z,12.88
2023-03-23T17:05:09.958Z,11.57
2023-03-23T17:07:48.470Z,10.70
2023-03-23T17:10:31.214Z,10.27
2023-03-23T17:13:18.818Z,10.10
2023-03-23T17:16:01.408Z,9.63
2023-03-23T17:18:52.873Z,56.58
2023-03-23T17:21:28.506Z,19.15
2023-03-23T17:24:16.247Z,10.88
2023-03-23T17:27:00.021Z,11.93
2023-03-23T17:29:43.908Z,11.38
2023-03-23T17:32:25.262Z,9.40
2023-03-23T17:35:00.284Z,10.27
2023-03-23T17:37:35.632Z,10.27
2023-03-23T17:40:19.107Z,9.93
2023-03-23T17:43:00.445Z,10.05
2023-03-23T17:45:37.478Z,9.55
2023-03-23T17:48:15.424Z,8.73
2023-03-23T17:51:05.864Z,8.75
2023-03-23T17:53:53.148Z,7.68
2023-03-23T17:56:50.374Z,7.40
2023-03-23T17:59:37.880Z,9.32
2023-03-23T18:02:32.947Z,9.13
2023-03-23T18:05:14.063Z,8.35
2023-03-23T18:07:51.464Z,8.85
2023-03-23T18:10:41.860Z,7.90
2023-03-23T18:13:24.637Z,7.80
2023-03-23T18:19:02.894Z,10.02
2023-03-23T18:21:47.986Z,11.98
2023-03-23T18:24:26.884Z,11.70
2023-03-23T18:27:14.488Z,10.25
2023-03-23T18:29:59.129Z,12.93
2023-03-23T18:32:37.734Z,14.13
2023-03-23T18:35:22.357Z,9.18
2023-03-23T18:38:00.343Z,9.70
2023-03-23T18:40:44.844Z,9.07
2023-03-23T18:43:24.617Z,11.57
2023-03-23T18:46:10.350Z,10.05
2023-03-23T18:48:51.361Z,9.82
2023-03-23T18:51:39.428Z,9.70
2023-03-23T18:54:18.711Z,9.70
2023-03-23T18:57:05.257Z,10.15
2023-03-23T18:59:52.557Z,10.77
2023-03-23T19:02:41.684Z,11.02
2023-03-23T19:05:22.235Z,10.50
2023-03-23T19:08:09.952Z,12.02
2023-03-23T19:10:47.314Z,10.50
2023-03-23T19:13:34.507Z,11.57
2023-03-23T19:16:16.528Z,11.40
2023-03-23T19:19:09.791Z,11.75
2023-03-23T19:21:53.431Z,10.93
2023-03-23T19:24:38.628Z,11.70
2023-03-23T19:27:15.482Z,12.80
2023-03-23T19:29:51.608Z,11.88
2023-03-23T19:32:35.076Z,14.35
2023-03-23T19:35:22.486Z,14.25
2023-03-23T19:37:56.183Z,15.73
2023-03-23T19:40:40.526Z,15.48
2023-03-23T19:43:30.445Z,15.60
2023-03-23T19:46:10.956Z,16.50
2023-03-23T19:48:56.363Z,16.17
2023-03-23T19:52:07.233Z,16.90
2023-03-23T19:55:00.202Z,14.70
2023-03-23T19:57:46.943Z,15.85
2023-03-23T20:00:24.449Z,14.18
2023-03-23T20:03:08.943Z,14.70
2023-03-23T20:05:51.770Z,13.40
2023-03-23T20:08:33.592Z,14.07
2023-03-23T20:11:19.832Z,14.40
2023-03-23T20:14:05.783Z,14.30
2023-03-23T20:16:56.175Z,14.98
2023-03-23T20:19:31.610Z,14.65
2023-03-23T20:22:16.138Z,15.32
2023-03-23T20:25:03.505Z,16.00
2023-03-23T20:27:44.331Z,14.85
2023-03-23T20:30:22.900Z,15.68
2023-03-23T20:33:14.634Z,16.63
2023-03-23T20:36:12.520Z,17.48
2023-03-23T20:38:56.744Z,16.30
2023-03-23T20:41:43.867Z,18.60
2023-03-23T20:44:27.553Z,16.90
2023-03-23T20:47:10.591Z,18.05
2023-03-23T20:49:52.640Z,18.15
2023-03-23T20:52:36.627Z,19.48
2023-03-23T20:55:23.126Z,19.83
2023-03-23T20:58:07.489Z,21.42
2023-03-23T21:00:47.940Z,21.05
2023-03-23T21:03:43.673Z,20.17
2023-03-23T21:06:30.247Z,22.70
2023-03-23T21:09:07.022Z,153.48
2023-03-23T21:11:53.879Z,59.95
2023-03-23T21:14:43.197Z,27.98
2023-03-23T21:17:20.949Z,25.30
2023-03-23T21:20:10.249Z,25.90
2023-03-23T21:22:51.847Z,22.35
2023-03-23T21:28:19.475Z,21.90
2023-03-23T21:31:02.206Z,23.88
2023-03-23T21:33:36.395Z,23.52
2023-03-23T21:36:26.364Z,24.08
2023-03-23T21:39:13.391Z,22.65
2023-03-23T21:41:58.023Z,22.88
2023-03-23T21:47:41.691Z,23.83
2023-03-23T21:50:45.954Z,24.90
2023-03-23T21:53:31.052Z,25.63
2023-03-23T21:56:19.308Z,24.83
2023-03-23T21:59:00.930Z,26.85
2023-03-23T22:01:42.351Z,26.27
2023-03-23T22:07:11.602Z,25.80
2023-03-23T22:09:58.095Z,27.30
2023-03-23T22:12:34.684Z,28.50
2023-03-23T22:15:18.982Z,28.83
2023-03-23T22:18:10.016Z,28.98
2023-03-23T22:20:56.619Z,28.58
2023-03-23T22:23:33.423Z,29.45
2023-03-23T22:26:14.816Z,29.83
2023-03-23T22:28:50.253Z,28.65
2023-03-23T22:31:30.669Z,28.65
2023-03-23T22:34:18.272Z,28.48
2023-03-23T22:36:54.359Z,28.30
2023-03-23T22:39:31.611Z,26.70
2023-03-23T22:42:13.576Z,27.80
2023-03-23T22:44:55.307Z,27.13
2023-03-23T22:47:31.768Z,28.35
2023-03-23T22:50:09.377Z,26.92
2023-03-23T22:52:48.660Z,25.95
2023-03-23T22:55:26.117Z,27.52
2023-03-23T22:58:12.143Z,26.77
2023-03-23T23:00:56.723Z,29.10
2023-03-23T23:03:37.042Z,29.92
2023-03-23T23:06:17.427Z,31.08
2023-03-23T23:11:37.241Z,29.42
2023-03-23T23:14:15.138Z,29.95
2023-03-23T23:17:01.335Z,29.38
2023-03-23T23:19:43.580Z,28.67
2023-03-23T23:22:22.596Z,29.48
2023-03-23T23:25:08.459Z,27.95
2023-03-23T23:27:44.836Z,30.30
2023-03-23T23:30:35.626Z,28.17
2023-03-23T23:33:19.090Z,27.45
2023-03-23T23:36:07.278Z,27.40
2023-03-23T23:38:47.303Z,27.17
2023-03-23T23:41:30.148Z,27.52
2023-03-23T23:44:10.876Z,27.00
2023-03-23T23:46:53.218Z,27.92
2023-03-23T23:49:36.240Z,26.30
2023-03-23T23:52:26.729Z,27.60
2023-03-23T23:55:02.769Z,28.85
2023-03-23T23:57:42.412Z,27.60
